createdAt,value
2023-12-30T00:01:29.127Z,1.10
2023-12-30T00:03:56.829Z,1.00
2023-12-30T00:06:24.261Z,1.00
2023-12-30T00:08:51.649Z,1.40
2023-12-30T00:11:19.167Z,1.70
2023-12-30T00:13:46.862Z,1.23
2023-12-30T00:16:15.224Z,1.17
2023-12-30T00:18:42.949Z,1.20
2023-12-30T00:21:10.434Z,1.60
2023-12-30T00:23:45.509Z,1.10
2023-12-30T00:26:24.345Z,1.37
2023-12-30T00:28:52.160Z,1.70
2023-12-30T00:31:27.243Z,1.23
2023-12-30T00:33:56.852Z,1.47
2023-12-30T00:36:24.370Z,1.30
2023-12-30T00:38:55.447Z,1.20
2023-12-30T00:41:24.043Z,1.10
2023-12-30T00:43:51.829Z,1.10
2023-12-30T00:46:21.192Z,1.60
2023-12-30T00:48:56.755Z,1.47
2023-12-30T00:51:25.592Z,1.33
2023-12-30T00:53:53.227Z,1.57
2023-12-30T00:56:20.571Z,1.07
2023-12-30T00:58:48.023Z,1.00
2023-12-30T01:01:15.537Z,1.27
2023-12-30T01:03:44.406Z,1.43
2023-12-30T01:06:11.880Z,1.27
2023-12-30T01:08:39.271Z,1.23
2023-12-30T01:11:06.934Z,1.10
2023-12-30T01:13:34.503Z,1.40
2023-12-30T01:16:06.926Z,1.10
2023-12-30T01:18:34.578Z,1.67
2023-12-30T01:21:02.227Z,1.00
2023-12-30T01:23:29.694Z,1.47
2023-12-30T01:25:57.516Z,1.17
2023-12-30T01:28:24.881Z,1.10
2023-12-30T01:30:52.833Z,0.80
2023-12-30T01:33:20.531Z,1.17
2023-12-30T01:35:48.201Z,2.47
2023-12-30T01:38:15.858Z,1.00
2023-12-30T01:40:43.476Z,1.23
2023-12-30T01:43:27.979Z,0.90
2023-12-30T01:45:59.519Z,1.00
2023-12-30T01:48:27.790Z,1.20
2023-12-30T01:50:58.678Z,0.93
2023-12-30T01:53:27.808Z,1.20
2023-12-30T01:55:57.527Z,1.03
2023-12-30T01:58:25.934Z,1.23
2023-12-30T02:00:55.336Z,1.03
2023-12-30T02:03:23.656Z,1.33
2023-12-30T02:05:51.391Z,1.10
2023-12-30T02:08:19.407Z,2.10
2023-12-30T02:10:47.236Z,1.23
2023-12-30T02:13:14.852Z,1.73
2023-12-30T02:15:42.576Z,1.30
2023-12-30T02:18:10.026Z,1.30
2023-12-30T02:20:37.538Z,1.00
2023-12-30T02:23:05.424Z,1.20
2023-12-30T02:25:33.333Z,1.20
2023-12-30T02:28:00.821Z,1.30
2023-12-30T02:30:28.454Z,1.50
2023-12-30T02:32:59.489Z,1.17
2023-12-30T02:35:28.664Z,2.00
2023-12-30T02:37:56.199Z,1.33
2023-12-30T02:40:23.639Z,1.10
2023-12-30T02:42:51.339Z,1.50
2023-12-30T02:45:18.974Z,1.07
2023-12-30T02:47:46.421Z,1.30
2023-12-30T02:50:14.039Z,1.00
2023-12-30T02:52:41.682Z,0.90
2023-12-30T02:55:09.289Z,1.30
2023-12-30T02:57:48.299Z,1.20
2023-12-30T03:00:19.184Z,1.37
2023-12-30T03:02:47.608Z,1.50
2023-12-30T03:05:15.859Z,1.40
2023-12-30T03:07:43.463Z,1.40
2023-12-30T03:10:11.687Z,1.40
2023-12-30T03:12:39.322Z,1.30
2023-12-30T03:15:07.143Z,1.23
2023-12-30T03:17:34.410Z,1.27
2023-12-30T03:20:04.699Z,1.33
2023-12-30T03:22:33.716Z,1.13
2023-12-30T03:25:01.582Z,1.20
2023-12-30T03:27:29.081Z,1.10
2023-12-30T03:29:56.535Z,1.67
2023-12-30T03:32:24.166Z,2.60
2023-12-30T03:34:51.460Z,1.20
2023-12-30T03:37:19.724Z,1.17
2023-12-30T03:39:47.240Z,1.40
2023-12-30T03:42:14.833Z,1.20
2023-12-30T03:44:42.082Z,1.10
2023-12-30T03:47:09.576Z,1.53
2023-12-30T03:49:37.093Z,1.43
2023-12-30T03:52:05.551Z,1.40
2023-12-30T03:54:33.076Z,1.07
2023-12-30T03:57:00.365Z,1.00
2023-12-30T03:59:28.312Z,1.33
2023-12-30T04:01:55.862Z,1.10
2023-12-30T04:04:23.566Z,1.00
2023-12-30T04:06:52.036Z,1.17
2023-12-30T04:09:19.633Z,1.20
2023-12-30T04:11:47.238Z,1.30
2023-12-30T04:14:14.521Z,0.90
2023-12-30T04:16:42.027Z,1.63
2023-12-30T04:19:09.501Z,1.27
2023-12-30T04:21:36.855Z,1.37
2023-12-30T04:24:04.665Z,1.50
2023-12-30T04:26:32.283Z,1.13
2023-12-30T04:29:00.714Z,1.17
2023-12-30T04:31:28.314Z,1.43
2023-12-30T04:33:55.766Z,1.00
2023-12-30T04:36:23.386Z,1.10
2023-12-30T04:38:51.020Z,1.10
2023-12-30T04:41:18.535Z,1.30
2023-12-30T04:43:45.966Z,1.10
2023-12-30T04:46:13.729Z,1.20
2023-12-30T04:48:41.410Z,1.37
2023-12-30T04:51:10.722Z,1.07
2023-12-30T04:53:38.759Z,1.00
2023-12-30T04:56:08.771Z,1.10
2023-12-30T04:58:36.088Z,1.47
2023-12-30T05:01:03.803Z,1.50
2023-12-30T05:03:31.277Z,1.10
2023-12-30T05:05:58.722Z,1.23
2023-12-30T05:08:26.225Z,1.53
2023-12-30T05:10:53.816Z,1.00
2023-12-30T05:13:21.313Z,1.30
2023-12-30T05:15:50.928Z,1.23
2023-12-30T05:18:18.619Z,1.50
2023-12-30T05:20:46.294Z,1.17
2023-12-30T05:23:13.814Z,1.13
2023-12-30T05:25:41.194Z,1.20
2023-12-30T05:28:08.692Z,1.20
2023-12-30T05:30:36.732Z,1.00
2023-12-30T05:33:06.592Z,0.97
2023-12-30T05:35:34.570Z,1.33
2023-12-30T05:38:02.189Z,2.07
2023-12-30T05:40:29.487Z,1.93
2023-12-30T05:42:56.886Z,1.23
2023-12-30T05:45:24.372Z,1.00
2023-12-30T05:47:51.938Z,1.30
2023-12-30T05:50:19.465Z,1.43
2023-12-30T05:52:46.911Z,1.20
2023-12-30T05:55:15.513Z,0.90
2023-12-30T05:57:42.884Z,0.93
2023-12-30T06:00:10.944Z,1.50
2023-12-30T06:02:38.598Z,1.00
2023-12-30T06:05:06.631Z,1.17
2023-12-30T06:07:33.949Z,1.10
2023-12-30T06:10:02.201Z,0.80
2023-12-30T06:12:29.914Z,1.20
2023-12-30T06:14:57.504Z,1.50
2023-12-30T06:17:25.693Z,1.13
2023-12-30T06:19:53.009Z,1.37
2023-12-30T06:22:20.666Z,1.50
2023-12-30T06:24:51.255Z,0.93
2023-12-30T06:27:20.891Z,1.13
2023-12-30T06:29:49.026Z,1.17
2023-12-30T06:32:16.461Z,1.20
2023-12-30T06:34:44.125Z,1.10
2023-12-30T06:37:11.548Z,1.07
2023-12-30T06:39:39.124Z,0.80
2023-12-30T06:42:11.009Z,1.20
2023-12-30T06:44:38.605Z,1.40
2023-12-30T06:47:06.893Z,1.23
2023-12-30T06:49:34.378Z,1.13
2023-12-30T06:52:01.792Z,1.00
2023-12-30T06:54:29.316Z,1.20
2023-12-30T06:56:56.995Z,1.00
2023-12-30T06:59:24.430Z,1.10
2023-12-30T07:01:51.943Z,1.30
2023-12-30T07:04:21.768Z,3.00
2023-12-30T07:06:49.547Z,1.33
2023-12-30T07:09:17.099Z,1.33
2023-12-30T07:11:44.632Z,1.23
2023-12-30T07:14:12.620Z,1.27
2023-12-30T07:16:39.990Z,1.00
2023-12-30T07:19:07.554Z,2.00
2023-12-30T07:21:35.028Z,2.07
2023-12-30T07:24:02.706Z,1.33
2023-12-30T07:26:30.036Z,0.90
2023-12-30T07:28:57.343Z,1.07
2023-12-30T07:31:26.345Z,1.93
2023-12-30T07:33:54.196Z,1.80
2023-12-30T07:36:22.986Z,1.10
2023-12-30T07:38:50.470Z,1.37
2023-12-30T07:41:20.078Z,1.43
2023-12-30T07:43:48.341Z,1.10
2023-12-30T07:46:20.965Z,0.90
2023-12-30T07:48:48.512Z,1.20
2023-12-30T07:51:16.382Z,1.60
2023-12-30T07:53:45.117Z,1.10
2023-12-30T07:56:12.778Z,1.10
2023-12-30T07:58:41.376Z,1.40
2023-12-30T08:01:09.084Z,1.43
2023-12-30T08:03:42.966Z,1.43
2023-12-30T08:06:10.234Z,2.40
2023-12-30T08:08:37.647Z,1.87
2023-12-30T08:11:05.335Z,1.47
2023-12-30T08:16:14.066Z,4.40
2023-12-30T08:18:50.708Z,2.70
2023-12-30T08:21:17.975Z,2.13
2023-12-30T08:23:45.671Z,2.00
2023-12-30T08:26:13.221Z,2.07
2023-12-30T08:28:40.522Z,3.00
2023-12-30T08:31:08.119Z,3.03
2023-12-30T08:33:35.673Z,1.30
2023-12-30T08:36:03.900Z,1.57
2023-12-30T08:38:33.164Z,1.70
2023-12-30T08:41:01.376Z,2.13
2023-12-30T08:43:29.652Z,1.70
2023-12-30T08:45:57.585Z,1.80
2023-12-30T08:48:25.045Z,1.83
2023-12-30T08:50:52.658Z,1.80
2023-12-30T08:53:26.367Z,1.87
2023-12-30T08:55:56.363Z,2.90
2023-12-30T08:58:25.461Z,1.87
2023-12-30T09:00:54.659Z,2.53
2023-12-30T09:03:22.172Z,2.50
2023-12-30T09:05:49.960Z,1.93
2023-12-30T09:08:17.664Z,3.13
2023-12-30T09:10:45.402Z,3.83
2023-12-30T09:13:12.983Z,2.13
2023-12-30T09:15:40.400Z,3.53
2023-12-30T09:18:08.627Z,3.20
2023-12-30T09:20:37.409Z,2.93
2023-12-30T09:23:05.477Z,3.40
2023-12-30T09:25:33.012Z,3.00
2023-12-30T09:28:01.250Z,2.20
2023-12-30T09:30:29.274Z,2.20
2023-12-30T09:32:56.701Z,2.03
2023-12-30T09:35:25.119Z,1.80
2023-12-30T09:37:52.718Z,1.53
2023-12-30T09:40:20.421Z,2.30
2023-12-30T09:42:52.331Z,2.23
2023-12-30T09:45:20.430Z,2.20
2023-12-30T09:47:48.888Z,2.00
2023-12-30T09:50:17.482Z,4.30
2023-12-30T09:52:45.137Z,1.70
2023-12-30T09:55:12.572Z,1.57
2023-12-30T09:57:41.066Z,3.20
2023-12-30T10:00:10.377Z,2.07
2023-12-30T10:02:38.418Z,1.90
2023-12-30T10:05:07.025Z,2.57
2023-12-30T10:07:35.317Z,3.03
2023-12-30T10:10:02.763Z,2.30
2023-12-30T10:12:30.433Z,2.83
2023-12-30T10:14:57.957Z,2.17
2023-12-30T10:17:26.424Z,1.70
2023-12-30T10:19:53.861Z,2.37
2023-12-30T10:22:21.506Z,2.30
2023-12-30T10:24:49.494Z,1.70
2023-12-30T10:27:17.393Z,2.00
2023-12-30T10:29:51.160Z,1.77
2023-12-30T10:32:24.795Z,2.20
2023-12-30T10:34:52.573Z,2.90
2023-12-30T10:37:24.151Z,2.10
2023-12-30T10:39:54.344Z,2.30
2023-12-30T10:42:23.650Z,1.90
2023-12-30T10:44:51.042Z,2.73
2023-12-30T10:47:22.648Z,1.70
2023-12-30T10:49:55.625Z,1.90
2023-12-30T10:52:27.722Z,1.93
2023-12-30T10:55:12.174Z,2.17
2023-12-30T10:57:47.560Z,2.97
2023-12-30T11:00:18.960Z,2.30
2023-12-30T11:02:48.039Z,2.00
2023-12-30T11:05:32.560Z,2.10
2023-12-30T11:08:00.317Z,2.00
2023-12-30T11:10:28.956Z,2.07
2023-12-30T11:13:34.238Z,2.53
2023-12-30T11:16:20.262Z,2.40
2023-12-30T11:18:57.018Z,3.03
2023-12-30T11:21:38.935Z,2.10
2023-12-30T11:24:13.205Z,3.03
2023-12-30T11:26:46.903Z,2.20
2023-12-30T11:29:26.588Z,2.83
2023-12-30T11:31:56.594Z,2.50
2023-12-30T11:34:46.102Z,2.90
2023-12-30T11:37:17.162Z,5.00
2023-12-30T11:39:46.663Z,3.57
2023-12-30T11:42:14.037Z,4.60
2023-12-30T11:44:42.562Z,4.37
2023-12-30T11:47:09.888Z,2.80
2023-12-30T11:49:37.742Z,3.17
2023-12-30T11:52:06.533Z,3.07
2023-12-30T11:54:34.736Z,3.43
2023-12-30T11:57:02.313Z,4.27
2023-12-30T11:59:30.985Z,3.93
2023-12-30T12:02:15.185Z,4.10
2023-12-30T12:04:43.379Z,3.77
2023-12-30T12:07:12.516Z,3.83
2023-12-30T12:09:41.738Z,3.43
2023-12-30T12:12:10.629Z,4.07
2023-12-30T12:14:39.150Z,3.30
2023-12-30T12:17:08.047Z,3.73
2023-12-30T12:19:38.067Z,4.53
2023-12-30T12:22:05.853Z,4.73
2023-12-30T12:24:33.796Z,6.10
2023-12-30T12:27:01.364Z,5.00
2023-12-30T12:29:28.656Z,5.90
2023-12-30T12:31:57.522Z,5.90
2023-12-30T12:34:26.912Z,5.60
2023-12-30T12:36:55.242Z,5.60
2023-12-30T12:39:22.712Z,7.13
2023-12-30T12:41:50.189Z,6.47
2023-12-30T12:44:17.838Z,6.53
2023-12-30T12:46:45.581Z,7.13
2023-12-30T12:49:13.245Z,7.60
2023-12-30T12:51:41.116Z,7.17
2023-12-30T12:54:08.559Z,6.80
2023-12-30T12:56:36.126Z,8.23
2023-12-30T12:59:03.664Z,7.23
2023-12-30T13:01:31.638Z,6.33
2023-12-30T13:04:02.385Z,6.37
2023-12-30T13:06:30.350Z,5.73
2023-12-30T13:08:58.040Z,5.70
2023-12-30T13:11:28.467Z,7.63
2023-12-30T13:13:57.194Z,6.53
2023-12-30T13:16:28.550Z,6.70
2023-12-30T13:18:57.104Z,6.93
2023-12-30T13:21:25.074Z,6.33
2023-12-30T13:23:52.374Z,6.07
2023-12-30T13:26:20.058Z,5.60
2023-12-30T13:28:47.804Z,6.47
2023-12-30T13:31:19.717Z,6.67
2023-12-30T13:33:47.259Z,6.90
2023-12-30T13:36:14.968Z,6.20
2023-12-30T13:38:45.495Z,5.73
2023-12-30T13:41:15.699Z,6.70
2023-12-30T13:43:45.408Z,4.93
2023-12-30T13:46:35.456Z,6.20
2023-12-30T13:49:13.124Z,4.93
2023-12-30T13:51:46.397Z,4.87
2023-12-30T13:54:17.421Z,3.80
2023-12-30T13:56:49.127Z,4.03
2023-12-30T13:59:16.738Z,3.83
2023-12-30T14:01:44.713Z,3.80
2023-12-30T14:04:14.279Z,2.33
2023-12-30T14:06:41.723Z,2.70
2023-12-30T14:09:25.674Z,2.40
2023-12-30T14:12:03.144Z,2.40
2023-12-30T14:14:40.761Z,4.20
2023-12-30T14:17:08.928Z,2.90
2023-12-30T14:19:36.801Z,2.73
2023-12-30T14:22:06.669Z,2.37
2023-12-30T14:24:34.574Z,2.70
2023-12-30T14:27:04.478Z,2.17
2023-12-30T14:29:32.129Z,2.10
2023-12-30T14:31:59.753Z,2.30
2023-12-30T14:34:27.362Z,2.33
2023-12-30T14:36:55.098Z,3.20
2023-12-30T14:39:23.169Z,2.10
2023-12-30T14:41:50.814Z,2.37
2023-12-30T14:44:29.556Z,3.00
2023-12-30T14:46:57.506Z,2.17
2023-12-30T14:49:25.024Z,2.07
2023-12-30T14:51:52.679Z,2.63
2023-12-30T14:54:20.421Z,2.87
2023-12-30T14:56:47.794Z,2.20
2023-12-30T14:59:15.713Z,2.13
2023-12-30T15:01:45.031Z,2.00
2023-12-30T15:04:13.689Z,2.13
2023-12-30T15:06:41.782Z,2.20
2023-12-30T15:09:11.540Z,2.93
2023-12-30T15:11:39.101Z,2.20
2023-12-30T15:14:07.614Z,2.37
2023-12-30T15:16:35.285Z,2.67
2023-12-30T15:19:03.368Z,2.43
2023-12-30T15:21:31.133Z,2.80
2023-12-30T15:23:59.907Z,2.10
2023-12-30T15:26:28.576Z,2.37
2023-12-30T15:28:56.014Z,2.93
2023-12-30T15:31:24.254Z,2.20
2023-12-30T15:33:52.100Z,2.10
2023-12-30T15:36:19.566Z,2.27
2023-12-30T15:38:47.030Z,2.20
2023-12-30T15:41:14.866Z,1.93
2023-12-30T15:43:42.348Z,2.50
2023-12-30T15:46:11.826Z,1.90
2023-12-30T15:48:39.858Z,1.63
2023-12-30T15:51:08.614Z,2.10
2023-12-30T15:53:36.043Z,1.80
2023-12-30T15:56:03.884Z,2.17
2023-12-30T15:58:31.171Z,1.83
2023-12-30T16:00:58.664Z,1.97
2023-12-30T16:03:39.487Z,1.80
2023-12-30T16:06:07.706Z,1.97
2023-12-30T16:08:35.198Z,2.47
2023-12-30T16:11:02.795Z,2.47
2023-12-30T16:13:30.085Z,2.50
2023-12-30T16:15:59.837Z,2.37
2023-12-30T16:18:28.338Z,2.40
2023-12-30T16:20:57.396Z,3.53
2023-12-30T16:23:25.579Z,4.47
2023-12-30T16:25:52.830Z,3.07
2023-12-30T16:28:21.102Z,2.47
2023-12-30T16:30:49.346Z,2.50
2023-12-30T16:33:16.952Z,2.43
2023-12-30T16:35:44.516Z,2.20
2023-12-30T16:38:11.969Z,1.90
2023-12-30T16:40:39.819Z,1.97
2023-12-30T16:43:08.131Z,2.07
2023-12-30T16:45:36.517Z,2.40
2023-12-30T16:48:04.837Z,2.53
2023-12-30T16:50:32.507Z,1.90
2023-12-30T16:53:00.229Z,2.30
2023-12-30T16:55:27.662Z,2.20
2023-12-30T16:58:07.562Z,2.43
2023-12-30T17:00:35.028Z,1.87
2023-12-30T17:03:03.227Z,2.00
2023-12-30T17:05:34.190Z,1.97
2023-12-30T17:08:01.792Z,2.13
2023-12-30T17:10:29.388Z,2.00
2023-12-30T17:12:56.886Z,2.50
2023-12-30T17:15:24.415Z,3.07
2023-12-30T17:17:51.798Z,2.90
2023-12-30T17:20:19.500Z,2.40
2023-12-30T17:22:47.168Z,2.37
2023-12-30T17:25:15.583Z,1.80
2023-12-30T17:27:43.267Z,2.03
2023-12-30T17:30:10.913Z,1.93
2023-12-30T17:32:46.418Z,2.97
2023-12-30T17:35:14.193Z,1.83
2023-12-30T17:37:41.666Z,2.30
2023-12-30T17:40:12.534Z,1.70
2023-12-30T17:42:40.178Z,1.67
2023-12-30T17:45:09.402Z,2.07
2023-12-30T17:47:37.968Z,1.57
2023-12-30T17:50:08.469Z,1.60
2023-12-30T17:52:36.844Z,1.87
2023-12-30T17:55:05.884Z,1.30
2023-12-30T17:57:33.736Z,1.57
2023-12-30T18:00:01.061Z,1.63
2023-12-30T18:02:28.646Z,1.40
2023-12-30T18:04:59.270Z,1.60
2023-12-30T18:07:26.725Z,1.53
2023-12-30T18:09:54.134Z,1.80
2023-12-30T18:12:21.548Z,2.33
2023-12-30T18:14:48.898Z,1.83
2023-12-30T18:17:16.554Z,1.70
2023-12-30T18:19:44.024Z,2.13
2023-12-30T18:22:11.445Z,1.60
2023-12-30T18:24:39.065Z,1.50
2023-12-30T18:27:06.926Z,1.23
2023-12-30T18:29:34.646Z,1.60
2023-12-30T18:32:03.305Z,1.87
2023-12-30T18:34:31.089Z,1.80
2023-12-30T18:36:58.430Z,1.70
2023-12-30T18:39:26.301Z,1.90
2023-12-30T18:41:55.959Z,2.20
2023-12-30T18:44:23.584Z,1.90
2023-12-30T18:46:51.995Z,1.50
2023-12-30T18:49:20.698Z,1.40
2023-12-30T18:51:48.456Z,1.60
2023-12-30T18:54:15.768Z,2.63
2023-12-30T18:56:45.746Z,1.60
2023-12-30T18:59:13.278Z,1.60
2023-12-30T19:01:45.868Z,2.07
2023-12-30T19:04:13.998Z,1.63
2023-12-30T19:06:41.412Z,1.40
2023-12-30T19:09:09.921Z,1.83
2023-12-30T19:11:37.536Z,1.50
2023-12-30T19:14:04.936Z,2.03
2023-12-30T19:16:32.434Z,1.73
2023-12-30T19:19:00.216Z,1.50
2023-12-30T19:21:27.614Z,1.53
2023-12-30T19:23:58.493Z,1.53
2023-12-30T19:26:26.187Z,1.90
2023-12-30T19:29:00.433Z,1.73
2023-12-30T19:31:27.964Z,1.77
2023-12-30T19:33:55.342Z,1.80
2023-12-30T19:36:24.446Z,1.70
2023-12-30T19:38:54.756Z,1.87
2023-12-30T19:41:22.242Z,1.80
2023-12-30T19:43:50.281Z,1.60
2023-12-30T19:46:17.765Z,1.77
2023-12-30T19:48:45.467Z,1.70
2023-12-30T19:51:12.982Z,1.70
2023-12-30T19:53:40.783Z,1.23
2023-12-30T19:56:08.141Z,1.80
2023-12-30T19:58:35.451Z,1.60
2023-12-30T20:01:06.334Z,1.90
2023-12-30T20:03:34.100Z,1.77
2023-12-30T20:06:01.730Z,1.60
2023-12-30T20:08:29.186Z,1.70
2023-12-30T20:10:56.492Z,1.87
2023-12-30T20:13:24.241Z,1.63
2023-12-30T20:15:52.248Z,1.77
2023-12-30T20:18:19.615Z,2.13
2023-12-30T20:20:47.372Z,1.47
2023-12-30T20:23:14.696Z,1.50
2023-12-30T20:25:42.158Z,1.60
2023-12-30T20:28:10.285Z,1.63
2023-12-30T20:30:38.070Z,1.60
2023-12-30T20:33:05.864Z,1.80
2023-12-30T20:35:48.669Z,1.63
2023-12-30T20:38:16.334Z,1.40
2023-12-30T20:40:46.885Z,1.87
2023-12-30T20:43:14.970Z,1.20
2023-12-30T20:45:44.767Z,1.23
2023-12-30T20:48:12.301Z,1.30
2023-12-30T20:50:40.028Z,1.43
2023-12-30T20:53:08.615Z,1.70
2023-12-30T20:55:36.364Z,1.40
2023-12-30T20:58:04.071Z,1.60
2023-12-30T21:00:31.505Z,1.40
2023-12-30T21:02:58.929Z,1.30
2023-12-30T21:05:26.404Z,1.60
2023-12-30T21:07:54.073Z,1.30
2023-12-30T21:10:21.637Z,1.63
2023-12-30T21:12:48.950Z,1.57
2023-12-30T21:15:16.356Z,1.67
2023-12-30T21:17:43.984Z,1.80
2023-12-30T21:20:11.737Z,1.53
2023-12-30T21:22:41.024Z,1.50
2023-12-30T21:25:16.328Z,1.40
2023-12-30T21:27:50.692Z,1.47
2023-12-30T21:30:18.364Z,1.43
2023-12-30T21:32:47.895Z,1.30
2023-12-30T21:35:15.717Z,1.27
2023-12-30T21:37:47.884Z,1.53
2023-12-30T21:40:18.190Z,1.40
2023-12-30T21:42:45.612Z,1.57
2023-12-30T21:45:12.861Z,1.60
2023-12-30T21:47:40.230Z,1.40
2023-12-30T21:50:08.492Z,1.70
2023-12-30T21:52:38.728Z,1.60
2023-12-30T21:55:07.307Z,1.70
2023-12-30T21:57:34.797Z,1.50
2023-12-30T22:00:02.412Z,1.80
2023-12-30T22:02:29.862Z,2.20
2023-12-30T22:04:58.090Z,1.30
2023-12-30T22:07:25.782Z,1.57
2023-12-30T22:09:53.233Z,1.23
2023-12-30T22:12:20.509Z,1.20
2023-12-30T22:14:48.062Z,1.37
2023-12-30T22:17:21.887Z,1.60
2023-12-30T22:19:50.702Z,1.60
2023-12-30T22:22:18.078Z,1.47
2023-12-30T22:24:45.771Z,1.27
2023-12-30T22:27:13.309Z,1.53
2023-12-30T22:29:40.872Z,1.30
2023-12-30T22:32:08.141Z,1.30
2023-12-30T22:34:36.089Z,1.23
2023-12-30T22:37:03.796Z,1.33
2023-12-30T22:39:32.106Z,1.53
2023-12-30T22:42:00.626Z,1.30
2023-12-30T22:44:28.046Z,1.47
2023-12-30T22:46:55.760Z,1.40
2023-12-30T22:49:23.490Z,1.40
2023-12-30T22:51:51.744Z,1.20
2023-12-30T22:54:20.246Z,1.50
2023-12-30T22:56:47.856Z,1.37
2023-12-30T22:59:18.679Z,1.33
2023-12-30T23:01:46.622Z,1.10
2023-12-30T23:04:14.614Z,1.30
2023-12-30T23:06:42.398Z,1.10
2023-12-30T23:09:09.623Z,1.37
2023-12-30T23:11:37.032Z,1.20
2023-12-30T23:14:04.281Z,1.10
2023-12-30T23:16:32.186Z,1.23
2023-12-30T23:19:00.268Z,1.13
2023-12-30T23:21:34.038Z,1.27
2023-12-30T23:24:01.788Z,1.10
2023-12-30T23:26:29.037Z,1.10
2023-12-30T23:28:58.118Z,1.00
2023-12-30T23:31:25.665Z,1.00
2023-12-30T23:33:53.922Z,0.90
2023-12-30T23:36:21.412Z,1.00
2023-12-30T23:38:49.184Z,1.03
2023-12-30T23:41:16.732Z,1.00
2023-12-30T23:43:44.036Z,1.10
2023-12-30T23:46:11.629Z,1.10
2023-12-30T23:48:39.039Z,1.10
2023-12-30T23:51:06.545Z,1.10
2023-12-30T23:53:34.726Z,1.10
2023-12-30T23:56:03.742Z,1.30
2023-12-30T23:58:31.492Z,1.17
